Grand Saline, TX

7:00 PM CDT on September 01, 2015 (GMT -0500)
NE Van | | Change Station
CLOSE
Current Station
Personal Weather Station
Location: Van, TX
Elevation: 531 ft
Nearby Weather Stations

Elev 531 ft 32.53 °N, 95.63 °W | Updated 13 seconds ago

Clear
Clear
83.5 °F
Feels Like 88 °F
N
0.4
Wind Variable Wind from SSE
Gusts 2.5 mph

Today
High -- | Low -- °F
--% Chance of Precip.
Yesterday
High -- | Low -- °F
Precip. -- in
6:57 AM 7:47 PM
Waning Gibbous, 85% visible
Pressure 30.00 in
Visibility 10.0 miles
Clouds Few 10000 ft
Heat Index 88 °F
Dew Point 70 °F
Humidity 64%
Rainfall 0.00 in
Snow Depth Not available.
UV 1.0 out of 12
Pollen 9.10 out of 12
Air Quality Not available.
Flu Activity Not available.
METAR KTYR 012353Z 14010KT 10SM FEW100 29/19 A3002 RMK AO2 SLP158 60000 T02890194 10333 20283 53002
Pressure 30.00 in
Visibility 10.0 miles
Clouds Few 10000 ft
Heat Index 88 °F
Dew Point 70 °F
Humidity 64%
Rainfall 0.00 in
Snow Depth Not available.
UV 1.0 out of 12
Pollen 9.10 out of 12
Air Quality Not available.
Flu Activity Not available.
METAR KTYR 012353Z 14010KT 10SM FEW100 29/19 A3002 RMK AO2 SLP158 60000 T02890194 10333 20283 53002
Nowcast | as of 6:02 PM CDT on September 1, 2015

A few showers and perhaps an isolated thunderstorm will affect areas generally along and east of I-35 and south of I-30 early this evening. Activity is moving northwest at 20 mph and should diminish around sunset with the loss of surface heating.

×

10-Day Weather Forecast

×

Almanac

Astronomy

Sep. 01, 2015 Rise Set
Actual Time
Civil Twilight
Nautical Twilight
Astronomical Twilight
Moon
Length of Visible Light
Length of Day
Tomorrow will be .
, % of the Moon is Illuminated

Today's Extremes

State Highs State Lows

Community

WunderPhotos

Upload Photos

1,851,653 photos uploaded!

WunderBlogs® & News

Nearby

Air Quality

  Air Quality AQ Index Pollutant
Not available.

Snow Depth

Station Depth Elevation

Earthquake Activity

City Distance Mag. Time & Date
Minimum magnitude displayed is 2.5.

Coastal Water Temperatures

Place Temperature

Stations

Nearby Weather Stations

Station Location Temp. Windchill Dew Point Humidity Wind Precip. Elev Updated Type